createdAt,value
2023-02-23T00:01:04.892Z,100695.97
2023-02-23T00:03:42.388Z,100697.56
2023-02-23T00:06:19.896Z,100705.84
2023-02-23T00:09:01.639Z,100700.50
2023-02-23T00:11:48.392Z,100702.09
2023-02-23T00:14:31.319Z,100684.66
2023-02-23T00:17:16.878Z,100636.53
2023-02-23T00:19:56.619Z,100696.78
2023-02-23T00:22:28.678Z,100693.34
2023-02-23T00:25:25.751Z,100686.13
2023-02-23T00:28:06.093Z,100710.22
2023-02-23T00:30:47.946Z,100691.72
2023-02-23T00:33:33.325Z,100698.69
2023-02-23T00:36:16.171Z,100682.31
2023-02-23T00:38:57.965Z,100691.44
2023-02-23T00:41:52.640Z,100700.28
2023-02-23T00:44:32.531Z,100710.97
2023-02-23T00:47:06.423Z,100697.28
2023-02-23T00:49:53.726Z,100692.16
2023-02-23T00:52:32.468Z,100688.16
2023-02-23T00:55:25.451Z,100685.19
2023-02-23T00:58:14.319Z,100689.69
2023-02-23T01:00:52.005Z,100676.78
2023-02-23T01:03:44.590Z,100677.53
2023-02-23T01:06:29.188Z,100672.41
2023-02-23T01:09:14.724Z,100679.13
2023-02-23T01:11:51.036Z,100675.00
2023-02-23T01:14:27.871Z,100685.19
2023-02-23T01:17:03.805Z,100688.91
2023-02-23T01:19:42.727Z,100688.03
2023-02-23T01:22:34.961Z,100693.69
2023-02-23T01:25:14.740Z,100693.38
2023-02-23T01:27:50.210Z,100688.53
2023-02-23T01:30:36.283Z,100686.94
2023-02-23T01:33:16.353Z,100682.09
2023-02-23T01:36:15.120Z,100677.53
2023-02-23T01:38:57.134Z,100674.31
2023-02-23T01:41:37.675Z,100643.41
2023-02-23T01:44:35.414Z,100665.72
2023-02-23T01:47:17.737Z,100673.56
2023-02-23T01:50:00.721Z,100685.00
2023-02-23T01:52:34.222Z,100669.97
2023-02-23T01:55:16.724Z,100660.75
2023-02-23T01:57:56.070Z,100673.16
2023-02-23T02:00:39.485Z,100671.53
2023-02-23T02:03:42.099Z,100670.13
2023-02-23T02:06:33.543Z,100665.06
2023-02-23T02:09:22.574Z,100681.25
2023-02-23T02:11:54.382Z,100673.50
2023-02-23T02:14:36.234Z,100668.34
2023-02-23T02:17:47.659Z,100674.50
2023-02-23T02:21:12.438Z,100673.09
2023-02-23T02:24:22.393Z,100658.56
2023-02-23T02:27:17.490Z,100670.59
2023-02-23T02:31:04.950Z,100681.78
2023-02-23T02:34:12.002Z,100681.41
2023-02-23T02:37:39.014Z,100685.13
2023-02-23T02:40:33.143Z,100681.91
2023-02-23T02:43:14.854Z,100690.22
2023-02-23T02:45:59.436Z,100681.84
2023-02-23T02:48:46.920Z,100689.56
2023-02-23T02:51:36.258Z,100677.69
2023-02-23T02:54:23.219Z,100686.81
2023-02-23T02:57:06.584Z,100674.53
2023-02-23T03:00:07.103Z,100689.25
2023-02-23T03:02:55.245Z,100680.94
2023-02-23T03:05:44.260Z,100678.75
2023-02-23T03:08:43.398Z,100692.91
2023-02-23T03:11:34.988Z,100678.63
2023-02-23T03:14:45.326Z,100692.06
2023-02-23T03:17:58.592Z,100694.56
2023-02-23T03:21:02.606Z,100692.41
2023-02-23T03:24:01.749Z,100692.09
2023-02-23T03:26:59.304Z,100705.44
2023-02-23T03:30:03.897Z,100674.50
2023-02-23T03:33:03.656Z,100706.31
2023-02-23T03:36:00.193Z,100700.38
2023-02-23T03:38:56.171Z,100719.19
2023-02-23T03:41:46.860Z,100710.66
2023-02-23T03:44:48.449Z,100694.75
2023-02-23T03:47:43.060Z,100707.81
2023-02-23T03:50:36.317Z,100709.13
2023-02-23T03:53:23.730Z,100711.56
2023-02-23T03:56:16.271Z,100701.94
2023-02-23T03:59:17.259Z,100672.53
2023-02-23T04:02:19.553Z,100705.25
2023-02-23T04:05:10.559Z,100674.88
2023-02-23T04:08:00.500Z,100704.50
2023-02-23T04:11:07.576Z,100702.84
2023-02-23T04:13:40.374Z,100707.66
2023-02-23T04:16:09.833Z,100703.59
2023-02-23T04:18:55.295Z,100708.59
2023-02-23T04:21:28.290Z,100715.06
2023-02-23T04:24:03.483Z,100713.94
2023-02-23T04:26:43.562Z,100663.16
2023-02-23T04:29:27.062Z,100686.28
2023-02-23T04:32:02.027Z,100718.28
2023-02-23T04:37:50.592Z,100711.16
2023-02-23T04:40:28.201Z,100712.44
2023-02-23T04:43:16.009Z,100713.25
2023-02-23T04:45:49.548Z,100696.94
2023-02-23T04:48:36.565Z,100711.16
2023-02-23T04:51:25.274Z,100710.69
2023-02-23T04:54:07.163Z,100710.81
2023-02-23T04:56:44.026Z,100707.28
2023-02-23T04:59:18.729Z,100710.81
2023-02-23T05:01:57.260Z,100706.78
2023-02-23T05:04:38.882Z,100688.00
2023-02-23T05:07:19.013Z,100705.00
2023-02-23T05:09:59.676Z,100707.41
2023-02-23T05:12:36.396Z,100706.69
2023-02-23T05:15:15.041Z,100709.34
2023-02-23T05:17:58.178Z,100703.69
2023-02-23T05:20:37.523Z,100702.81
2023-02-23T05:23:25.517Z,100709.56
2023-02-23T05:26:08.926Z,100713.47
2023-02-23T05:28:44.593Z,100711.09
2023-02-23T05:31:29.039Z,100715.97
2023-02-23T05:34:04.632Z,100709.69
2023-02-23T05:36:37.232Z,100718.59
2023-02-23T05:39:16.244Z,100715.00
2023-02-23T05:41:53.443Z,100724.72
2023-02-23T05:44:40.994Z,100722.63
2023-02-23T05:47:17.691Z,100725.63
2023-02-23T05:50:00.502Z,100724.09
2023-02-23T05:52:51.113Z,100724.28
2023-02-23T05:55:46.601Z,100731.88
2023-02-23T05:58:41.261Z,100734.31
2023-02-23T06:01:13.053Z,100731.75
2023-02-23T06:03:53.298Z,100738.59
2023-02-23T06:06:37.123Z,100670.31
2023-02-23T06:09:08.408Z,100733.69
2023-02-23T06:11:57.379Z,100735.13
2023-02-23T06:14:29.835Z,100740.63
2023-02-23T06:17:11.688Z,100742.81
2023-02-23T06:19:50.852Z,100736.59
2023-02-23T06:22:25.012Z,100738.84
2023-02-23T06:25:04.468Z,100744.50
2023-02-23T06:27:40.235Z,100755.66
2023-02-23T06:30:21.538Z,100758.16
2023-02-23T06:32:53.839Z,100760.72
2023-02-23T06:35:26.599Z,100760.81
2023-02-23T06:38:06.499Z,100729.72
2023-02-23T06:40:43.983Z,100739.16
2023-02-23T06:43:24.214Z,100707.97
2023-02-23T06:46:02.317Z,100766.75
2023-02-23T06:48:43.674Z,100764.41
2023-02-23T06:51:18.298Z,100765.84
2023-02-23T06:54:07.752Z,100721.97
2023-02-23T06:56:46.343Z,100751.97
2023-02-23T06:59:32.131Z,100731.41
2023-02-23T07:02:14.932Z,100768.59
2023-02-23T07:04:52.154Z,100749.84
2023-02-23T07:07:32.025Z,100773.59
2023-02-23T07:10:19.224Z,100774.22
2023-02-23T07:12:54.063Z,100774.38
2023-02-23T07:15:53.888Z,100774.00
2023-02-23T07:18:42.559Z,100774.66
2023-02-23T07:21:15.496Z,100767.84
2023-02-23T07:23:53.490Z,100782.31
2023-02-23T07:26:36.899Z,100772.91
2023-02-23T07:29:20.550Z,100771.66
2023-02-23T07:32:00.948Z,100775.91
2023-02-23T07:34:37.890Z,100770.44
2023-02-23T07:37:16.320Z,100783.97
2023-02-23T07:39:49.648Z,100775.50
2023-02-23T07:42:30.963Z,100783.63
2023-02-23T07:45:12.705Z,100779.44
2023-02-23T07:47:58.546Z,100784.19
2023-02-23T07:50:31.621Z,100786.16
2023-02-23T07:53:19.045Z,100784.34
2023-02-23T07:56:08.654Z,100776.66
2023-02-23T07:58:41.972Z,100782.63
2023-02-23T08:01:29.162Z,100782.19
2023-02-23T08:04:07.689Z,100775.28
2023-02-23T08:06:51.306Z,100764.59
2023-02-23T08:09:41.508Z,100772.72
2023-02-23T08:12:18.401Z,100785.66
2023-02-23T08:14:56.544Z,100779.00
2023-02-23T08:17:31.505Z,100771.84
2023-02-23T08:20:13.572Z,100744.97
2023-02-23T08:22:49.771Z,100783.72
2023-02-23T08:25:23.206Z,100782.13
2023-02-23T08:28:02.731Z,100769.25
2023-02-23T08:30:42.584Z,100753.72
2023-02-23T08:33:25.847Z,100783.81
2023-02-23T08:36:07.138Z,100783.53
2023-02-23T08:38:46.829Z,100776.56
2023-02-23T08:41:25.170Z,100775.25
2023-02-23T08:44:03.165Z,100767.44
2023-02-23T08:46:44.079Z,100788.91
2023-02-23T08:49:18.241Z,100785.13
2023-02-23T08:52:05.953Z,100791.59
2023-02-23T08:54:45.511Z,100786.44
2023-02-23T08:57:20.621Z,100791.25
2023-02-23T09:00:07.476Z,100792.31
2023-02-23T09:02:42.699Z,100790.66
2023-02-23T09:05:15.972Z,100785.53
2023-02-23T09:08:00.702Z,100797.03
2023-02-23T09:10:34.102Z,100792.13
2023-02-23T09:13:15.281Z,100772.31
2023-02-23T09:16:04.423Z,100796.41
2023-02-23T09:18:35.258Z,100792.06
2023-02-23T09:21:10.940Z,100794.41
2023-02-23T09:23:57.793Z,100799.19
2023-02-23T09:26:35.821Z,100785.94
2023-02-23T09:29:13.349Z,100778.34
2023-02-23T09:31:56.879Z,100785.81
2023-02-23T09:34:36.317Z,100788.72
2023-02-23T09:37:11.345Z,100773.41
2023-02-23T09:39:52.437Z,100770.69
2023-02-23T09:43:01.111Z,100795.75
2023-02-23T09:45:53.391Z,100795.41
2023-02-23T09:48:33.008Z,100785.44
2023-02-23T09:54:05.151Z,100796.38
2023-02-23T09:56:46.729Z,100801.75
2023-02-23T09:59:25.656Z,100801.13
2023-02-23T10:02:10.057Z,100800.28
2023-02-23T10:04:47.510Z,100807.16
2023-02-23T10:07:25.945Z,100781.59
2023-02-23T10:10:31.190Z,100794.88
2023-02-23T10:13:49.498Z,100791.03
2023-02-23T10:16:26.326Z,100795.31
2023-02-23T10:19:11.661Z,100797.97
2023-02-23T10:21:53.144Z,100793.97
2023-02-23T10:24:28.983Z,100797.97
2023-02-23T10:27:12.824Z,100795.50
2023-02-23T10:30:01.026Z,100768.72
2023-02-23T10:33:13.080Z,100785.47
2023-02-23T10:35:46.415Z,100777.56
2023-02-23T10:38:33.402Z,100783.84
2023-02-23T10:41:15.703Z,100777.66
2023-02-23T10:43:57.112Z,100769.78
2023-02-23T10:46:49.089Z,100774.50
2023-02-23T10:49:37.725Z,100776.56
2023-02-23T10:52:18.601Z,100738.88
2023-02-23T10:55:05.200Z,100768.47
2023-02-23T10:57:43.433Z,100766.47
2023-02-23T11:00:59.225Z,100756.41
2023-02-23T11:03:42.517Z,100737.13
2023-02-23T11:06:49.858Z,100751.41
2023-02-23T11:09:46.423Z,100748.34
2023-02-23T11:12:25.494Z,100737.00
2023-02-23T11:14:59.419Z,100749.47
2023-02-23T11:17:38.526Z,100745.16
2023-02-23T11:20:35.236Z,100730.84
2023-02-23T11:23:23.850Z,100739.81
2023-02-23T11:26:05.515Z,100733.84
2023-02-23T11:28:46.812Z,100719.63
2023-02-23T11:31:29.708Z,100725.41
2023-02-23T11:34:09.041Z,100723.81
2023-02-23T11:37:13.030Z,100722.03
2023-02-23T11:39:59.709Z,100723.13
2023-02-23T11:42:39.089Z,100708.50
2023-02-23T11:45:32.316Z,100718.13
2023-02-23T11:48:27.770Z,100714.81
2023-02-23T11:51:01.813Z,100708.22
2023-02-23T11:53:53.388Z,100712.03
2023-02-23T11:56:31.378Z,100697.09
2023-02-23T11:59:09.884Z,100706.81
2023-02-23T12:01:52.807Z,100689.38
2023-02-23T12:04:51.482Z,100687.78
2023-02-23T12:08:02.442Z,100691.56
2023-02-23T12:10:57.023Z,100675.44
2023-02-23T12:13:42.223Z,100687.72
2023-02-23T12:16:27.626Z,100687.19
2023-02-23T12:19:04.904Z,100662.06
2023-02-23T12:21:48.114Z,100667.88
2023-02-23T12:24:32.572Z,100654.03
2023-02-23T12:27:20.877Z,100677.94
2023-02-23T12:30:15.664Z,100676.28
2023-02-23T12:32:57.883Z,100670.88
2023-02-23T12:35:56.787Z,100673.34
2023-02-23T12:38:39.238Z,100656.50
2023-02-23T12:41:22.094Z,100656.25
2023-02-23T12:44:22.440Z,100647.00
2023-02-23T12:47:14.847Z,100655.19
2023-02-23T12:49:57.341Z,100658.63
2023-02-23T12:52:41.521Z,100640.09
2023-02-23T12:55:18.870Z,100633.41
2023-02-23T12:58:04.475Z,100628.16
2023-02-23T13:00:59.599Z,100642.44
2023-02-23T13:04:11.257Z,100653.59
2023-02-23T13:07:05.369Z,100649.34
2023-02-23T13:10:05.743Z,100639.44
2023-02-23T13:12:51.574Z,100641.25
2023-02-23T13:15:38.023Z,100637.25
2023-02-23T13:18:28.817Z,100640.56
2023-02-23T13:21:18.427Z,100621.38
2023-02-23T13:24:11.327Z,100625.44
2023-02-23T13:27:00.503Z,100631.34
2023-02-23T13:29:40.785Z,100635.81
2023-02-23T13:32:32.776Z,100637.44
2023-02-23T13:35:11.502Z,100633.94
2023-02-23T13:37:50.633Z,100612.53
2023-02-23T13:40:38.372Z,100627.91
2023-02-23T13:43:25.452Z,100632.44
2023-02-23T13:46:25.602Z,100629.59
2023-02-23T13:49:05.827Z,100624.81
2023-02-23T13:51:47.505Z,100630.88
2023-02-23T13:54:34.073Z,100622.09
2023-02-23T13:57:22.185Z,100627.34
2023-02-23T14:00:03.505Z,100591.38
2023-02-23T14:03:00.844Z,100616.66
2023-02-23T14:05:36.866Z,100622.41
2023-02-23T14:08:32.686Z,100621.06
2023-02-23T14:11:10.587Z,100628.22
2023-02-23T14:14:14.454Z,100628.84
2023-02-23T14:17:08.638Z,100621.50
2023-02-23T14:19:47.247Z,100625.44
2023-02-23T14:22:27.173Z,100626.69
2023-02-23T14:25:29.430Z,100611.00
2023-02-23T14:28:07.313Z,100627.25
2023-02-23T14:30:55.939Z,100626.53
2023-02-23T14:33:59.211Z,100610.50
2023-02-23T14:36:58.130Z,100623.19
2023-02-23T14:39:36.809Z,100624.91
2023-02-23T14:42:12.810Z,100615.13
2023-02-23T14:44:55.864Z,100622.34
2023-02-23T14:47:36.330Z,100622.16
2023-02-23T14:50:20.034Z,100616.34
2023-02-23T14:53:21.558Z,100589.28
2023-02-23T14:55:55.762Z,100598.06
2023-02-23T14:58:40.977Z,100619.19
2023-02-23T15:01:42.361Z,100599.31
2023-02-23T15:04:24.685Z,100586.00
2023-02-23T15:07:09.066Z,100617.81
2023-02-23T15:09:53.711Z,100615.22
2023-02-23T15:12:34.432Z,100604.66
2023-02-23T15:15:19.556Z,100613.25
2023-02-23T15:18:04.486Z,100613.13
2023-02-23T15:20:46.640Z,100617.56
2023-02-23T15:23:30.484Z,100613.25
2023-02-23T15:26:23.762Z,100625.69
2023-02-23T15:29:05.111Z,100616.94
2023-02-23T15:31:51.515Z,100632.75
2023-02-23T15:34:42.251Z,100619.50
2023-02-23T15:37:27.569Z,100621.56
2023-02-23T15:40:10.568Z,100621.84
2023-02-23T15:42:50.741Z,100621.22
2023-02-23T15:45:35.219Z,100607.38
2023-02-23T15:48:19.675Z,100623.03
2023-02-23T15:50:59.303Z,100621.69
2023-02-23T15:53:40.133Z,100627.03
2023-02-23T15:56:19.815Z,100627.47
2023-02-23T15:59:03.601Z,100622.75
2023-02-23T16:01:48.974Z,100631.97
2023-02-23T16:04:29.590Z,100644.13
2023-02-23T16:07:24.104Z,100644.81
2023-02-23T16:10:14.961Z,100627.69
2023-02-23T16:12:52.932Z,100628.66
2023-02-23T16:15:31.046Z,100622.75
2023-02-23T16:18:07.855Z,100636.19
2023-02-23T16:20:46.773Z,100634.66
2023-02-23T16:23:34.186Z,100632.03
2023-02-23T16:26:13.767Z,100631.16
2023-02-23T16:31:33.613Z,100625.00
2023-02-23T16:34:09.286Z,100620.38
2023-02-23T16:36:53.901Z,100625.56
2023-02-23T16:39:56.837Z,100629.34
2023-02-23T16:42:45.846Z,100629.41
2023-02-23T16:45:26.469Z,100613.59
2023-02-23T16:48:03.357Z,100634.81
2023-02-23T16:50:45.204Z,100573.78
2023-02-23T16:53:17.135Z,100641.50
2023-02-23T16:56:09.754Z,100633.84
2023-02-23T16:58:53.422Z,100649.81
2023-02-23T17:01:25.907Z,100639.53
2023-02-23T17:04:02.904Z,100636.88
2023-02-23T17:06:44.121Z,100652.47
2023-02-23T17:09:20.187Z,100656.63
2023-02-23T17:12:09.855Z,100658.94
2023-02-23T17:14:46.935Z,100644.03
2023-02-23T17:17:27.584Z,100667.94
2023-02-23T17:20:10.842Z,100639.16
2023-02-23T17:22:44.216Z,100667.59
2023-02-23T17:25:27.783Z,100661.25
2023-02-23T17:28:02.763Z,100657.78
2023-02-23T17:30:37.587Z,100665.91
2023-02-23T17:33:07.966Z,100675.88
2023-02-23T17:35:46.342Z,100656.63
2023-02-23T17:38:26.237Z,100652.19
2023-02-23T17:41:09.727Z,100680.91
2023-02-23T17:43:48.210Z,100650.94
2023-02-23T17:46:22.564Z,100679.09
2023-02-23T17:48:56.034Z,100674.75
2023-02-23T17:51:39.168Z,100680.16
2023-02-23T17:54:13.445Z,100637.66
2023-02-23T17:56:47.428Z,100656.94
2023-02-23T17:59:21.213Z,100681.59
2023-02-23T18:02:00.864Z,100631.59
2023-02-23T18:04:42.638Z,100674.69
2023-02-23T18:07:20.104Z,100677.69
2023-02-23T18:09:59.443Z,100637.84
2023-02-23T18:12:32.000Z,100669.75
2023-02-23T18:15:23.373Z,100668.66
2023-02-23T18:18:02.125Z,100686.38
2023-02-23T18:20:37.198Z,100680.22
2023-02-23T18:23:11.165Z,100679.69
2023-02-23T18:25:47.245Z,100692.91
2023-02-23T18:28:19.225Z,100671.47
2023-02-23T18:31:02.321Z,100697.50
2023-02-23T18:33:38.324Z,100671.56
2023-02-23T18:36:20.526Z,100697.03
2023-02-23T18:39:00.517Z,100696.53
2023-02-23T18:41:36.958Z,100704.88
2023-02-23T18:44:15.905Z,100698.94
2023-02-23T18:47:05.830Z,100670.31
2023-02-23T18:49:53.067Z,100695.78
2023-02-23T18:52:44.164Z,100701.97
2023-02-23T18:55:16.673Z,100643.00
2023-02-23T18:57:55.174Z,100707.13
2023-02-23T19:00:44.808Z,100706.88
2023-02-23T19:03:29.499Z,100688.66
2023-02-23T19:06:01.115Z,100709.03
2023-02-23T19:09:00.602Z,100684.88
2023-02-23T19:11:41.221Z,100709.00
2023-02-23T19:14:21.991Z,100698.28
2023-02-23T19:16:55.617Z,100724.06
2023-02-23T19:19:38.473Z,100717.91
2023-02-23T19:22:19.374Z,100719.78
2023-02-23T19:24:57.340Z,100725.41
2023-02-23T19:27:32.290Z,100720.34
2023-02-23T19:30:04.733Z,100730.00
2023-02-23T19:32:40.098Z,100695.66
2023-02-23T19:35:19.657Z,100722.47
2023-02-23T19:37:57.033Z,100737.78
2023-02-23T19:40:36.240Z,100699.44
2023-02-23T19:43:06.974Z,100735.88
2023-02-23T19:45:43.458Z,100737.22
2023-02-23T19:48:20.293Z,100741.28
2023-02-23T19:51:04.950Z,100721.69
2023-02-23T19:53:42.626Z,100733.25
2023-02-23T19:56:17.767Z,100661.63
2023-02-23T19:58:49.921Z,100703.72
2023-02-23T20:01:33.225Z,100725.75
2023-02-23T20:04:07.048Z,100721.13
2023-02-23T20:06:49.634Z,100723.13
2023-02-23T20:09:29.269Z,100714.44
2023-02-23T20:12:02.836Z,100714.03
2023-02-23T20:14:39.668Z,100709.28
2023-02-23T20:17:18.580Z,100717.47
2023-02-23T20:19:57.220Z,100691.06
2023-02-23T20:22:41.935Z,100712.88
2023-02-23T20:25:20.434Z,100701.47
2023-02-23T20:27:59.585Z,100705.66
2023-02-23T20:30:38.926Z,100700.75
2023-02-23T20:33:12.555Z,100711.72
2023-02-23T20:35:48.674Z,100716.97
2023-02-23T20:38:29.388Z,100718.81
2023-02-23T20:41:14.516Z,100701.16
2023-02-23T20:43:54.380Z,100700.22
2023-02-23T20:46:33.879Z,100699.31
2023-02-23T20:49:11.004Z,100695.09
2023-02-23T20:51:57.576Z,100700.97
2023-02-23T20:54:49.342Z,100708.72
2023-02-23T20:57:28.852Z,100709.72
2023-02-23T21:00:17.205Z,100695.84
2023-02-23T21:03:06.086Z,100693.28
2023-02-23T21:05:48.238Z,100709.97
2023-02-23T21:08:29.403Z,100711.63
2023-02-23T21:11:14.815Z,100716.75
2023-02-23T21:13:48.549Z,100712.47
2023-02-23T21:16:21.911Z,100697.19
2023-02-23T21:19:07.713Z,100699.63
2023-02-23T21:21:58.722Z,100695.06
2023-02-23T21:24:37.437Z,100712.78
2023-02-23T21:27:27.633Z,100714.38
2023-02-23T21:30:10.484Z,100716.53
2023-02-23T21:32:47.473Z,100676.31
2023-02-23T21:35:20.748Z,100703.91
2023-02-23T21:38:02.883Z,100687.56
2023-02-23T21:40:46.662Z,100694.56
2023-02-23T21:43:31.399Z,100670.97
2023-02-23T21:46:09.440Z,100652.22
2023-02-23T21:49:04.250Z,100672.06
2023-02-23T21:51:44.595Z,100673.44
2023-02-23T21:54:26.129Z,100686.84
2023-02-23T21:57:03.752Z,100688.19
2023-02-23T21:59:42.216Z,100669.44
2023-02-23T22:02:20.116Z,100683.91
2023-02-23T22:04:58.501Z,100682.81
2023-02-23T22:07:38.300Z,100644.22
2023-02-23T22:10:14.766Z,100630.81
2023-02-23T22:12:59.896Z,100650.44
2023-02-23T22:15:47.320Z,100634.84
2023-02-23T22:18:33.583Z,100685.28
2023-02-23T22:21:27.954Z,100680.16
2023-02-23T22:24:02.553Z,100674.25
2023-02-23T22:26:39.048Z,100674.56
2023-02-23T22:29:17.611Z,100674.00
2023-02-23T22:32:03.035Z,100619.56
2023-02-23T22:34:35.506Z,100675.91
2023-02-23T22:37:15.485Z,100630.56
2023-02-23T22:39:52.824Z,100672.16
2023-02-23T22:42:24.762Z,100688.22
2023-02-23T22:44:57.824Z,100687.72
2023-02-23T22:47:42.414Z,100689.84
2023-02-23T22:50:38.803Z,100686.91
2023-02-23T22:53:22.282Z,100693.59
2023-02-23T22:55:59.736Z,100693.59
2023-02-23T22:58:42.269Z,100641.84
2023-02-23T23:01:22.864Z,100690.69
2023-02-23T23:04:04.550Z,100673.22
2023-02-23T23:06:51.729Z,100686.09
2023-02-23T23:09:39.379Z,100712.94
2023-02-23T23:12:18.637Z,100705.94
2023-02-23T23:15:02.402Z,100700.31
2023-02-23T23:17:38.479Z,100710.25
2023-02-23T23:20:26.599Z,100702.50
2023-02-23T23:23:05.001Z,100676.44
2023-02-23T23:25:46.610Z,100710.00
2023-02-23T23:28:24.359Z,100709.44
2023-02-23T23:31:02.987Z,100689.31
2023-02-23T23:33:36.374Z,100710.25
2023-02-23T23:36:23.780Z,100712.94
2023-02-23T23:38:58.806Z,100718.28
2023-02-23T23:41:38.695Z,100712.34
2023-02-23T23:44:24.938Z,100679.38
2023-02-23T23:47:07.451Z,100700.53
2023-02-23T23:49:42.953Z,100703.78
2023-02-23T23:52:25.622Z,100674.84
2023-02-23T23:55:20.455Z,100700.03
2023-02-23T23:58:01.836Z,100700.59
